Time;durP1;ratioP1;P1;durP2;ratioP2;P2;SDS_P1;SDS_P2;PMS_P1;PMS_P2;Temp;Humidity;BMP_temperature;BMP_pressure;BME280_temperature;BME280_humidity;BME280_pressure;Samples;Min_cycle;Max_cycle;Signal;HPM_P1;HPM_P2
2021/08/14 00:01:27;;;;;;;18.50;8.02;;;;;;;;;;4981175;28;20066;-96
2021/08/14 00:03:53;;;;;;;21.63;8.38;;;;;;;;;;4955641;28;20100;-96
2021/08/14 00:06:19;;;;;;;19.13;7.88;;;;;;;;;;4936397;28;20062;-96
2021/08/14 00:08:46;;;;;;;23.80;8.63;;;;;;;;;;4974286;28;20066;-93
2021/08/14 00:11:17;;;;;;;17.05;7.65;;;;;;;;;;4931824;28;20402;-96
2021/08/14 00:13:52;;;;;;;17.88;7.95;;;;;;;;;;4978988;28;20054;-95
2021/08/14 00:16:21;;;;;;;16.08;8.27;;;;;;;;;;4927503;28;20063;-96
2021/08/14 00:18:50;;;;;;;21.83;8.10;;;;;;;;;;4954936;28;20093;-91
2021/08/14 00:21:16;;;;;;;19.08;7.38;;;;;;;;;;4951098;28;20073;-96
2021/08/14 00:23:48;;;;;;;16.92;7.70;;;;;;;;;;4947340;28;20057;-95
2021/08/14 00:26:26;;;;;;;16.45;7.50;;;;;;;;;;4964625;28;20110;-93
2021/08/14 00:28:56;;;;;;;21.65;8.00;;;;;;;;;;4955289;28;20061;-94
2021/08/14 00:31:25;;;;;;;17.45;7.63;;;;;;;;;;4958079;28;20052;-95
2021/08/14 00:33:54;;;;;;;16.90;7.20;;;;;;;;;;4959522;28;20065;-95
2021/08/14 00:36:23;;;;;;;16.35;8.02;;;;;;;;;;4992837;28;20061;-96
2021/08/14 00:38:53;;;;;;;23.83;8.40;;;;;;;;;;4966782;28;20107;-94
2021/08/14 00:41:33;;;;;;;;;;;;;;;;;;;;;
2021/08/14 00:44:03;;;;;;;18.85;8.52;;;;;;;;;;4939753;28;20058;-96
2021/08/14 00:46:33;;;;;;;21.33;8.75;;;;;;;;;;4941709;28;20119;-95
2021/08/14 00:49:03;;;;;;;17.80;7.40;;;;;;;;;;4978024;28;20057;-96
2021/08/14 00:51:52;;;;;;;14.63;7.45;;;;;;;;;;4930104;28;20059;-90
2021/08/14 00:54:26;;;;;;;20.08;8.38;;;;;;;;;;4991176;28;20067;-95
2021/08/14 00:56:53;;;;;;;24.48;8.98;;;;;;;;;;4979265;28;20048;-96
2021/08/14 00:59:27;;;;;;;18.15;7.90;;;;;;;;;;4964213;28;20120;-95
2021/08/14 01:02:02;;;;;;;18.55;7.57;;;;;;;;;;4917156;28;20059;-91
2021/08/14 01:04:30;;;;;;;23.40;8.45;;;;;;;;;;4967244;28;20080;-96
2021/08/14 01:07:02;;;;;;;20.88;7.90;;;;;;;;;;4927897;28;20059;-94
2021/08/14 01:09:39;;;;;;;20.20;8.50;;;;;;;;;;4952435;23;20402;-93
2021/08/14 01:12:17;;;;;;;21.50;9.70;;;;;;;;;;5328844;23;20189;-91
2021/08/14 01:14:54;;;;;;;20.05;8.60;;;;;;;;;;4982025;23;20058;-93
2021/08/14 01:17:37;;;;;;;21.05;8.77;;;;;;;;;;5020470;23;20126;-94
2021/08/14 01:20:16;;;;;;;;;;;;;;;;;;;;;
2021/08/14 01:22:55;;;;;;;26.20;9.55;;;;;;;;;;4974793;23;20054;-93
2021/08/14 01:25:23;;;;;;;20.77;9.05;;;;;;;;;;4926345;28;20136;-96
2021/08/14 01:27:52;;;;;;;19.48;8.02;;;;;;;;;;4878354;28;20037;-90
2021/08/14 01:30:21;;;;;;;21.35;8.85;;;;;;;;;;4868695;29;30675;-94
2021/08/14 01:32:57;;;;;;;18.13;8.25;;;;;;;;;;4895355;29;20063;-92
2021/08/14 01:35:32;;;;;;;18.13;8.35;;;;;;;;;;4878309;29;20146;-94
2021/08/14 01:38:03;;;;;;;21.92;8.98;;;;;;;;;;4910750;28;20120;-96
2021/08/14 01:40:34;;;;;;;20.98;8.85;;;;;;;;;;4897848;29;20065;-88
2021/08/14 01:43:09;;;;;;;22.52;9.05;;;;;;;;;;4933412;28;20498;-93
2021/08/14 01:45:35;;;;;;;24.42;9.07;;;;;;;;;;4919276;28;20479;-96
2021/08/14 01:48:04;;;;;;;22.83;9.18;;;;;;;;;;4944828;28;20043;-96
2021/08/14 01:50:31;;;;;;;20.42;8.57;;;;;;;;;;4961616;28;20046;-96
2021/08/14 01:53:01;;;;;;;23.00;8.65;;;;;;;;;;4934689;28;20050;-96
2021/08/14 01:55:28;;;;;;;18.52;8.07;;;;;;;;;;4898306;28;20047;-96
2021/08/14 01:58:09;;;;;;;22.42;9.27;;;;;;;;;;4926014;28;20055;-95
2021/08/14 02:00:35;;;;;;;20.15;9.10;;;;;;;;;;4973223;28;20105;-94
2021/08/14 02:03:13;;;;;;;22.20;8.48;;;;;;;;;;4951362;28;20074;-94
2021/08/14 02:05:49;;;;;;;21.35;8.82;;;;;;;;;;4965440;28;20057;-94
2021/08/14 02:08:20;;;;;;;20.10;7.78;;;;;;;;;;4961111;28;20054;-95
2021/08/14 02:10:50;;;;;;;20.38;8.50;;;;;;;;;;4955030;28;20166;-93
2021/08/14 02:13:19;;;;;;;19.58;8.52;;;;;;;;;;4956115;28;20066;-96
2021/08/14 02:15:45;;;;;;;14.60;7.75;;;;;;;;;;4933776;28;20054;-94
2021/08/14 02:18:17;;;;;;;19.60;8.02;;;;;;;;;;4949864;28;20451;-95
2021/08/14 02:20:43;;;;;;;24.10;8.40;;;;;;;;;;4921605;28;20114;-96
2021/08/14 02:23:09;;;;;;;21.83;8.40;;;;;;;;;;4958488;28;20043;-95
2021/08/14 02:25:43;;;;;;;24.45;8.80;;;;;;;;;;4912943;28;20051;-95
2021/08/14 02:28:12;;;;;;;18.50;7.68;;;;;;;;;;4915143;28;20047;-95
2021/08/14 02:30:41;;;;;;;18.98;8.70;;;;;;;;;;4918109;28;20055;-95
2021/08/14 02:33:09;;;;;;;18.52;8.25;;;;;;;;;;4923193;28;20047;-95
2021/08/14 02:35:37;;;;;;;23.40;8.43;;;;;;;;;;4931038;28;20058;-96
2021/08/14 02:38:04;;;;;;;19.98;7.82;;;;;;;;;;4937808;28;20091;-96
2021/08/14 02:40:32;;;;;;;17.17;7.50;;;;;;;;;;4910444;29;20055;-95
2021/08/14 02:43:05;;;;;;;17.95;7.57;;;;;;;;;;4918559;28;20488;-93
2021/08/14 02:45:36;;;;;;;19.27;8.05;;;;;;;;;;4948275;28;20061;-91
2021/08/14 02:48:03;;;;;;;17.38;7.90;;;;;;;;;;4929269;28;20084;-96
2021/08/14 02:50:41;;;;;;;18.13;8.02;;;;;;;;;;4954165;28;20127;-94
2021/08/14 02:53:14;;;;;;;21.55;8.65;;;;;;;;;;4971672;28;20052;-95
2021/08/14 02:55:41;;;;;;;15.95;7.55;;;;;;;;;;4914667;28;20074;-96
2021/08/14 02:58:10;;;;;;;16.70;8.30;;;;;;;;;;4943595;28;20053;-95
2021/08/14 03:00:36;;;;;;;19.85;8.25;;;;;;;;;;4947256;28;20506;-96
2021/08/14 03:03:04;;;;;;;14.75;7.68;;;;;;;;;;4899127;28;20051;-96
2021/08/14 03:05:31;;;;;;;24.15;8.80;;;;;;;;;;4938110;28;20434;-96
2021/08/14 03:07:59;;;;;;;21.88;8.85;;;;;;;;;;4921665;28;20102;-96
2021/08/14 03:10:28;;;;;;;21.20;8.35;;;;;;;;;;4963282;23;20051;-95
2021/08/14 03:12:56;;;;;;;19.70;8.27;;;;;;;;;;4954979;28;20043;-93
2021/08/14 03:15:38;;;;;;;21.10;9.55;;;;;;;;;;4953979;28;20061;-96
2021/08/14 03:18:09;;;;;;;22.83;8.32;;;;;;;;;;4980833;28;20096;-95
2021/08/14 03:20:39;;;;;;;19.42;8.07;;;;;;;;;;4958549;28;20052;-95
2021/08/14 03:23:16;;;;;;;17.75;9.10;;;;;;;;;;4923093;28;20039;-93
2021/08/14 03:25:50;;;;;;;16.92;8.02;;;;;;;;;;4894401;28;20263;-94
2021/08/14 03:28:19;;;;;;;16.77;8.48;;;;;;;;;;4928420;29;20815;-94
2021/08/14 03:30:56;;;;;;;19.63;8.57;;;;;;;;;;4939757;28;20047;-95
2021/08/14 03:33:25;;;;;;;19.45;8.73;;;;;;;;;;4919307;29;20063;-96
2021/08/14 03:35:51;;;;;;;20.65;9.05;;;;;;;;;;4927550;29;20049;-93
2021/08/14 03:38:18;;;;;;;23.67;9.32;;;;;;;;;;4916828;29;20075;-96
2021/08/14 03:40:50;;;;;;;19.73;9.43;;;;;;;;;;4932155;28;20096;-96
2021/08/14 03:43:20;;;;;;;20.98;9.80;;;;;;;;;;4937152;28;20525;-95
2021/08/14 03:46:00;;;;;;;23.38;9.38;;;;;;;;;;4935408;28;20053;-96
2021/08/14 03:48:28;;;;;;;24.75;10.20;;;;;;;;;;4942480;28;20059;-96
2021/08/14 03:53:51;;;;;;;21.67;9.03;;;;;;;;;;4963837;23;20046;31
2021/08/14 03:56:28;;;;;;;17.30;9.20;;;;;;;;;;4940520;28;20126;-95
2021/08/14 03:59:06;;;;;;;17.73;8.60;;;;;;;;;;4905381;29;20099;-92
2021/08/14 04:01:43;;;;;;;18.45;8.40;;;;;;;;;;4902374;28;20079;-93
2021/08/14 04:04:14;;;;;;;21.80;8.90;;;;;;;;;;4907834;28;20046;-96
2021/08/14 04:06:45;;;;;;;22.40;8.73;;;;;;;;;;4938804;28;20145;-96
2021/08/14 04:23:40;;;;;;;22.05;10.27;;;;;;;;;;1525144;23;20322;-94
2021/08/14 04:32:03;;;;;;;19.60;8.20;;;;;;;;;;5443910;23;20172;-93
2021/08/14 04:34:43;;;;;;;;;;;;;;;;;;;;;
2021/08/14 04:37:16;;;;;;;18.30;9.10;;;;;;;;;;5260459;22;20038;-96
2021/08/14 04:45:45;;;;;;;22.35;8.60;;;;;;;;;;4477926;23;20096;31
2021/08/14 05:02:32;;;;;;;19.33;8.73;;;;;;;;;;1539059;23;20309;-94
2021/08/14 05:14:16;;;;;;;24.02;9.95;;;;;;;;;;4959285;23;20058;-95
2021/08/14 05:16:48;;;;;;;22.95;8.85;;;;;;;;;;5208609;23;20105;-93
2021/08/14 05:19:28;;;;;;;26.20;9.30;;;;;;;;;;5405103;23;20042;-96
2021/08/14 05:21:57;;;;;;;26.98;10.55;;;;;;;;;;5059357;23;20185;-94
2021/08/14 05:30:25;;;;;;;22.75;9.15;;;;;;;;;;4911651;28;20169;-95
2021/08/14 05:32:57;;;;;;;23.48;9.25;;;;;;;;;;4884049;29;20034;-94
2021/08/14 05:35:24;;;;;;;25.38;9.13;;;;;;;;;;4900571;29;20458;-96
2021/08/14 05:38:03;;;;;;;23.13;8.88;;;;;;;;;;4902900;28;20148;-93
2021/08/14 05:40:32;;;;;;;26.08;9.65;;;;;;;;;;5061020;23;20063;-96
2021/08/14 05:43:24;;;;;;;24.95;8.35;;;;;;;;;;4996083;23;20055;31
2021/08/14 05:48:43;;;;;;;20.70;8.43;;;;;;;;;;5120903;23;19926;-94
2021/08/14 05:57:22;;;;;;;23.35;8.55;;;;;;;;;;5268851;23;20021;-92
2021/08/14 05:59:51;;;;;;;22.17;8.60;;;;;;;;;;4924511;28;20051;-95
2021/08/14 06:05:14;;;;;;;22.92;9.18;;;;;;;;;;4936220;23;20048;-95
2021/08/14 06:07:46;;;;;;;21.63;8.70;;;;;;;;;;4866225;29;20056;-95
2021/08/14 06:12:54;;;;;;;22.23;8.60;;;;;;;;;;4979839;23;20271;-96
2021/08/14 06:18:07;;;;;;;23.42;8.70;;;;;;;;;;5122373;23;20045;-92
2021/08/14 06:20:40;;;;;;;19.02;8.40;;;;;;;;;;4995722;23;20054;-96
2021/08/14 06:23:11;;;;;;;18.77;8.82;;;;;;;;;;4924930;29;20055;-96
2021/08/14 06:31:24;;;;;;;26.33;10.13;;;;;;;;;;2004505;23;20898;-95
2021/08/14 06:34:22;;;;;;;20.80;9.27;;;;;;;;;;4700248;23;20177;-95
2021/08/14 06:36:53;;;;;;;19.05;8.90;;;;;;;;;;5074531;23;20053;-95
2021/08/14 06:39:26;;;;;;;22.98;8.88;;;;;;;;;;5343749;23;20577;-94
2021/08/14 06:41:58;;;;;;;21.52;9.32;;;;;;;;;;4972378;23;20046;-95
2021/08/14 06:44:42;;;;;;;16.85;7.80;;;;;;;;;;4969332;28;20124;-91
2021/08/14 06:49:43;;;;;;;;;;;;;;;;;;4975658;28;20290;-95
2021/08/14 06:52:10;;;;;;;16.98;8.15;;;;;;;;;;4950618;28;19929;-96
2021/08/14 06:54:38;;;;;;;23.25;8.95;;;;;;;;;;4906690;28;20058;-94
2021/08/14 06:57:07;;;;;;;23.73;8.55;;;;;;;;;;4871306;29;20138;-93
2021/08/14 06:59:34;;;;;;;18.92;8.50;;;;;;;;;;4919994;28;20095;-96
2021/08/14 07:02:09;;;;;;;22.73;9.05;;;;;;;;;;4931817;28;20053;-96
2021/08/14 07:04:41;;;;;;;22.13;8.48;;;;;;;;;;5112964;23;20042;-96
2021/08/14 07:07:08;;;;;;;25.25;8.52;;;;;;;;;;4949135;28;20039;-93
2021/08/14 07:09:52;;;;;;;22.27;8.60;;;;;;;;;;4956753;28;20066;-96
2021/08/14 07:12:25;;;;;;;21.77;8.82;;;;;;;;;;4982981;23;20052;-96
2021/08/14 07:14:56;;;;;;;23.70;8.32;;;;;;;;;;4929054;28;20052;-95
2021/08/14 07:17:25;;;;;;;18.83;7.97;;;;;;;;;;4922515;28;20061;-95
2021/08/14 07:30:36;;;;;;;17.98;7.00;;;;;;;;;;4995998;28;20070;-95
2021/08/14 07:33:15;;;;;;;21.42;6.78;;;;;;;;;;4956777;28;20056;-94
2021/08/14 07:35:49;;;;;;;20.40;6.90;;;;;;;;;;4940844;28;20093;-96
2021/08/14 07:38:20;;;;;;;17.48;6.53;;;;;;;;;;4991482;28;20057;-91
2021/08/14 07:40:46;;;;;;;20.98;6.38;;;;;;;;;;4994114;28;20046;-92
2021/08/14 07:43:12;;;;;;;16.98;6.65;;;;;;;;;;4993264;28;20057;-93
2021/08/14 07:45:38;;;;;;;19.85;6.97;;;;;;;;;;5008301;28;20056;-93
2021/08/14 07:48:06;;;;;;;15.32;5.40;;;;;;;;;;5011333;28;20056;-92
2021/08/14 07:50:32;;;;;;;18.80;6.80;;;;;;;;;;5002071;28;20064;-90
2021/08/14 07:52:59;;;;;;;19.02;6.97;;;;;;;;;;5002710;28;20115;-89
2021/08/14 07:55:26;;;;;;;17.50;5.78;;;;;;;;;;5025848;28;20045;-92
2021/08/14 07:57:52;;;;;;;13.23;5.40;;;;;;;;;;5009281;28;20058;-91
2021/08/14 08:00:22;;;;;;;15.13;5.47;;;;;;;;;;5017996;28;20134;-92
2021/08/14 08:02:48;;;;;;;16.02;5.57;;;;;;;;;;5011288;28;20125;-92
2021/08/14 08:05:15;;;;;;;13.95;5.68;;;;;;;;;;4995219;28;20124;-93
2021/08/14 08:07:43;;;;;;;16.80;5.07;;;;;;;;;;5004702;28;20386;-92
2021/08/14 08:10:11;;;;;;;16.58;5.88;;;;;;;;;;5024214;28;20046;-91
2021/08/14 08:12:37;;;;;;;17.45;5.97;;;;;;;;;;5019587;28;20080;-94
2021/08/14 08:15:04;;;;;;;15.75;5.43;;;;;;;;;;5017612;28;20049;-91
2021/08/14 08:17:30;;;;;;;16.85;6.65;;;;;;;;;;5010019;28;20132;-91
2021/08/14 08:19:56;;;;;;;19.63;6.38;;;;;;;;;;4996937;28;20062;-93
2021/08/14 08:22:23;;;;;;;16.73;6.88;;;;;;;;;;4992073;28;20045;-94
2021/08/14 08:24:49;;;;;;;21.48;6.93;;;;;;;;;;5002569;28;20053;-91
2021/08/14 08:27:15;;;;;;;11.77;4.80;;;;;;;;;;5006680;28;20055;-92
2021/08/14 08:29:41;;;;;;;14.32;5.97;;;;;;;;;;5004620;28;20068;-91
2021/08/14 08:32:08;;;;;;;13.57;5.10;;;;;;;;;;5026153;28;20120;-91
2021/08/14 08:34:34;;;;;;;17.65;6.30;;;;;;;;;;5021963;28;20049;-94
2021/08/14 08:37:01;;;;;;;13.75;5.53;;;;;;;;;;5026150;28;20045;-91
2021/08/14 08:39:28;;;;;;;13.57;5.60;;;;;;;;;;5023597;28;20057;-91
2021/08/14 08:41:56;;;;;;;15.48;5.57;;;;;;;;;;5020112;28;20053;-94
2021/08/14 08:44:22;;;;;;;16.58;5.30;;;;;;;;;;5006183;28;20817;-90
2021/08/14 08:46:49;;;;;;;14.40;5.07;;;;;;;;;;5001044;28;20081;-92
2021/08/14 08:49:17;;;;;;;17.90;5.95;;;;;;;;;;5018121;28;20069;-90
2021/08/14 08:51:44;;;;;;;11.95;4.78;;;;;;;;;;5000934;28;20076;-93
2021/08/14 08:54:14;;;;;;;18.65;6.47;;;;;;;;;;5000388;28;20045;-92
2021/08/14 08:56:40;;;;;;;16.85;5.38;;;;;;;;;;5024872;28;20103;-91
2021/08/14 08:59:06;;;;;;;11.30;5.22;;;;;;;;;;4992001;28;20214;-91
2021/08/14 09:01:32;;;;;;;14.77;5.93;;;;;;;;;;5007262;28;20052;-91
2021/08/14 09:04:17;;;;;;;15.57;5.80;;;;;;;;;;5008512;28;20534;-90
2021/08/14 09:06:43;;;;;;;;;;;;;;;;;;4987038;28;20057;-90
2021/08/14 09:09:11;;;;;;;16.70;5.80;;;;;;;;;;5023694;28;20361;-88
2021/08/14 09:11:48;;;;;;;12.95;4.72;;;;;;;;;;5024378;28;20064;-87
2021/08/14 09:14:14;;;;;;;13.63;5.85;;;;;;;;;;4998932;28;20607;-88
2021/08/14 09:16:40;;;;;;;12.52;5.70;;;;;;;;;;4993589;28;20060;-87
2021/08/14 09:19:06;;;;;;;14.82;6.05;;;;;;;;;;5007706;28;20140;-89
2021/08/14 09:21:32;;;;;;;16.30;6.07;;;;;;;;;;5022402;28;20045;-88
2021/08/14 09:24:03;;;;;;;11.07;4.95;;;;;;;;;;5021870;28;20056;-89
2021/08/14 09:26:30;;;;;;;12.77;5.10;;;;;;;;;;5022601;28;20045;-89
2021/08/14 09:29:04;;;;;;;16.77;5.32;;;;;;;;;;5007990;28;20057;-89
2021/08/14 09:31:47;;;;;;;11.80;4.60;;;;;;;;;;5023536;28;20055;-90
2021/08/14 09:34:19;;;;;;;14.23;5.05;;;;;;;;;;4981169;28;20081;-90
2021/08/14 09:36:59;;;;;;;12.63;5.25;;;;;;;;;;4991776;28;20414;-89
2021/08/14 09:39:25;;;;;;;10.88;4.18;;;;;;;;;;5012510;28;20065;-90
2021/08/14 09:42:00;;;;;;;13.23;5.25;;;;;;;;;;4997396;28;20129;-90
2021/08/14 09:44:26;;;;;;;15.57;5.07;;;;;;;;;;5007091;28;20054;-90
2021/08/14 09:46:53;;;;;;;14.70;4.93;;;;;;;;;;4992241;28;20069;-90
2021/08/14 09:49:19;;;;;;;12.40;4.70;;;;;;;;;;5009916;28;20088;-90
2021/08/14 09:51:45;;;;;;;10.85;4.00;;;;;;;;;;5028380;28;20049;-89
2021/08/14 09:54:11;;;;;;;10.35;4.45;;;;;;;;;;5027100;28;20049;-89
2021/08/14 09:56:37;;;;;;;9.38;3.92;;;;;;;;;;5010428;28;20107;-89
2021/08/14 09:59:04;;;;;;;11.65;4.00;;;;;;;;;;5008928;28;20112;-89
2021/08/14 10:01:32;;;;;;;15.63;5.28;;;;;;;;;;4991643;28;20057;-89
2021/08/14 10:03:59;;;;;;;10.10;4.00;;;;;;;;;;4990319;28;20050;-89
2021/08/14 10:06:26;;;;;;;12.18;4.88;;;;;;;;;;5008291;28;20050;-90
2021/08/14 10:08:53;;;;;;;11.18;5.18;;;;;;;;;;5013067;28;20421;-89
2021/08/14 10:11:19;;;;;;;12.52;5.00;;;;;;;;;;5020974;28;20045;-90
2021/08/14 10:13:46;;;;;;;13.70;5.50;;;;;;;;;;5017513;28;20049;-90
2021/08/14 10:16:15;;;;;;;11.25;4.65;;;;;;;;;;5013755;28;20161;-90
2021/08/14 10:18:42;;;;;;;13.80;6.20;;;;;;;;;;5014243;28;20054;-91
2021/08/14 10:21:08;;;;;;;13.70;5.38;;;;;;;;;;4999999;28;20434;-90
2021/08/14 10:23:35;;;;;;;16.63;6.38;;;;;;;;;;4999503;28;20062;-90
2021/08/14 10:26:09;;;;;;;12.98;5.18;;;;;;;;;;4996957;28;20060;-88
2021/08/14 10:28:42;;;;;;;16.33;5.80;;;;;;;;;;4997341;28;20049;-90
2021/08/14 10:31:08;;;;;;;14.82;4.95;;;;;;;;;;4998121;28;20140;-90
2021/08/14 10:33:36;;;;;;;13.95;5.50;;;;;;;;;;5005202;28;20481;-90
2021/08/14 10:36:17;;;;;;;14.00;5.35;;;;;;;;;;5014818;28;20057;-89
2021/08/14 10:38:44;;;;;;;12.65;4.40;;;;;;;;;;5002288;28;20057;-90
2021/08/14 10:41:11;;;;;;;9.10;4.10;;;;;;;;;;5031042;28;20469;-90
2021/08/14 10:43:52;;;;;;;11.20;4.30;;;;;;;;;;4996471;28;20052;-90
2021/08/14 10:46:37;;;;;;;8.75;3.60;;;;;;;;;;4993481;28;20053;-90
2021/08/14 10:49:04;;;;;;;9.48;3.67;;;;;;;;;;5012796;28;20516;-90
2021/08/14 10:51:48;;;;;;;7.75;3.00;;;;;;;;;;5011220;28;20144;-89
2021/08/14 10:54:50;;;;;;;4.97;2.30;;;;;;;;;;4973884;28;20054;-92
2021/08/14 10:57:18;;;;;;;7.03;2.85;;;;;;;;;;4956125;28;20460;-93
2021/08/14 10:59:50;;;;;;;8.40;2.70;;;;;;;;;;5028070;28;20478;-92
2021/08/14 11:02:16;;;;;;;6.35;2.55;;;;;;;;;;4973363;28;20513;-92
2021/08/14 11:05:03;;;;;;;7.55;2.88;;;;;;;;;;4981456;28;20061;-89
2021/08/14 11:07:30;;;;;;;6.85;2.75;;;;;;;;;;4979373;28;20069;-90
2021/08/14 11:09:57;;;;;;;5.53;2.35;;;;;;;;;;4989814;28;20054;-90
2021/08/14 11:12:40;;;;;;;7.18;2.78;;;;;;;;;;4976089;28;20358;-89
2021/08/14 11:15:26;;;;;;;6.35;2.20;;;;;;;;;;4966074;28;20053;-92
2021/08/14 11:17:53;;;;;;;6.05;1.90;;;;;;;;;;4993358;28;20054;-91
2021/08/14 11:20:19;;;;;;;6.03;2.78;;;;;;;;;;4993133;28;20053;-92
2021/08/14 11:22:46;;;;;;;4.50;2.03;;;;;;;;;;5009249;28;20112;-92
2021/08/14 11:25:29;;;;;;;8.38;3.00;;;;;;;;;;4991423;28;20046;-91
2021/08/14 11:27:55;;;;;;;7.70;2.70;;;;;;;;;;4966733;28;20509;-93
2021/08/14 11:30:26;;;;;;;7.22;3.40;;;;;;;;;;5009701;28;20050;-91
2021/08/14 11:32:52;;;;;;;10.48;3.55;;;;;;;;;;5019778;28;20486;-91
2021/08/14 11:35:20;;;;;;;7.68;2.75;;;;;;;;;;4998742;28;20060;-92
2021/08/14 11:37:54;;;;;;;7.78;3.55;;;;;;;;;;5001067;28;20069;-90
2021/08/14 11:40:22;;;;;;;7.35;3.25;;;;;;;;;;4951536;28;20557;-92
2021/08/14 11:43:05;;;;;;;7.32;3.15;;;;;;;;;;4991841;28;20053;-92
2021/08/14 11:45:33;;;;;;;9.98;2.83;;;;;;;;;;4978369;28;20061;-91
2021/08/14 11:48:03;;;;;;;6.93;2.85;;;;;;;;;;5002948;28;20063;-91
2021/08/14 11:50:34;;;;;;;4.70;2.65;;;;;;;;;;5011096;28;20060;-93
2021/08/14 11:53:00;;;;;;;6.13;2.40;;;;;;;;;;4966721;28;20121;-89
2021/08/14 11:55:26;;;;;;;6.53;2.92;;;;;;;;;;4991153;28;20077;-93
2021/08/14 11:57:53;;;;;;;6.10;2.83;;;;;;;;;;5000554;28;20102;-92
2021/08/14 12:00:19;;;;;;;8.15;2.63;;;;;;;;;;4982710;28;20185;-89
2021/08/14 12:02:45;;;;;;;7.05;2.80;;;;;;;;;;4981365;28;20046;-90
2021/08/14 12:05:11;;;;;;;5.85;2.97;;;;;;;;;;4973260;28;20140;-90
2021/08/14 12:07:38;;;;;;;7.65;3.08;;;;;;;;;;4996239;28;20051;-87
2021/08/14 12:10:04;;;;;;;8.10;3.10;;;;;;;;;;4998640;28;20062;-88
2021/08/14 12:12:30;;;;;;;7.75;3.55;;;;;;;;;;4994113;28;20049;-92
2021/08/14 12:14:57;;;;;;;7.80;2.60;;;;;;;;;;5009931;28;20073;-94
2021/08/14 12:17:24;;;;;;;8.65;3.00;;;;;;;;;;5008584;28;20062;-92
2021/08/14 12:19:54;;;;;;;6.00;3.40;;;;;;;;;;5024495;28;20501;-92
2021/08/14 12:22:20;;;;;;;7.78;3.05;;;;;;;;;;5025957;28;20062;-93
2021/08/14 12:24:47;;;;;;;7.60;2.90;;;;;;;;;;4993440;28;20054;-92
2021/08/14 12:27:23;;;;;;;5.70;2.80;;;;;;;;;;5005891;28;20041;-91
2021/08/14 12:29:49;;;;;;;8.45;3.05;;;;;;;;;;5012727;28;20537;-90
2021/08/14 12:32:15;;;;;;;6.57;3.45;;;;;;;;;;5026726;28;20053;-91
2021/08/14 12:34:42;;;;;;;6.43;3.20;;;;;;;;;;4994346;28;20149;-94
2021/08/14 12:37:15;;;;;;;5.30;2.55;;;;;;;;;;5009929;28;20092;-91
2021/08/14 12:39:56;;;;;;;7.03;3.20;;;;;;;;;;5009583;28;20490;-92
2021/08/14 12:42:29;;;;;;;6.07;2.55;;;;;;;;;;5009128;28;20053;-90
2021/08/14 12:44:56;;;;;;;10.55;3.47;;;;;;;;;;5009469;28;20431;-94
2021/08/14 12:47:33;;;;;;;7.53;3.42;;;;;;;;;;5008634;28;20073;-91
2021/08/14 12:50:13;;;;;;;6.05;3.10;;;;;;;;;;5011567;28;20181;-87
2021/08/14 12:52:40;;;;;;;5.45;2.58;;;;;;;;;;4998120;28;20053;-88
2021/08/14 12:55:06;;;;;;;6.68;3.10;;;;;;;;;;5012934;28;20081;-90
2021/08/14 12:57:32;;;;;;;9.95;3.08;;;;;;;;;;4994184;28;20064;-88
2021/08/14 12:59:58;;;;;;;6.65;3.00;;;;;;;;;;5011791;28;20057;-88
2021/08/14 13:02:24;;;;;;;9.00;3.55;;;;;;;;;;4993735;28;20054;-87
2021/08/14 13:04:51;;;;;;;7.03;2.50;;;;;;;;;;4982547;28;20502;-87
2021/08/14 13:07:17;;;;;;;6.53;3.30;;;;;;;;;;4993049;28;20108;-86
2021/08/14 13:09:43;;;;;;;7.30;3.20;;;;;;;;;;4984854;28;20056;-93
2021/08/14 13:12:10;;;;;;;8.18;3.42;;;;;;;;;;4993405;28;20061;-90
2021/08/14 13:14:36;;;;;;;8.13;3.20;;;;;;;;;;4992281;28;20053;-91
2021/08/14 13:17:02;;;;;;;6.13;3.35;;;;;;;;;;4992985;28;20050;-90
2021/08/14 13:19:29;;;;;;;7.18;3.50;;;;;;;;;;4991186;28;20061;-90
2021/08/14 13:21:56;;;;;;;7.38;3.10;;;;;;;;;;4991352;28;20057;-90
2021/08/14 13:24:22;;;;;;;8.95;3.80;;;;;;;;;;4991696;28;20049;-94
2021/08/14 13:27:39;;;;;;;;;;;;;;;;;;;;;
2021/08/14 13:30:32;;;;;;;8.35;3.22;;;;;;;;;;4710323;29;20127;-96
2021/08/14 13:43:53;;;;;;;6.97;3.10;;;;;;;;;;5598798;22;10252333;-94
2021/08/14 13:46:22;;;;;;;8.38;3.55;;;;;;;;;;5946821;23;20364;-95
2021/08/14 13:59:34;;;;;;;7.82;3.10;;;;;;;;;;4972517;28;20999;-92
2021/08/14 14:02:14;;;;;;;6.65;2.78;;;;;;;;;;4961895;28;20052;-93
2021/08/14 14:05:03;;;;;;;7.55;3.70;;;;;;;;;;4909015;28;20043;-91
2021/08/14 14:18:13;;;;;;;10.68;3.58;;;;;;;;;;4968933;27;20126;-92
2021/08/14 14:20:40;;;;;;;9.52;3.55;;;;;;;;;;4861718;28;20063;-94
2021/08/14 14:23:16;;;;;;;6.88;3.25;;;;;;;;;;4788860;29;203797;-96
2021/08/14 14:25:59;;;;;;;8.38;3.10;;;;;;;;;;4933823;27;1382393;-91
2021/08/14 14:28:26;;;;;;;6.28;2.75;;;;;;;;;;4929326;28;20055;-91
2021/08/14 14:30:57;;;;;;;7.30;2.75;;;;;;;;;;4949214;28;20219;-93
2021/08/14 14:33:23;;;;;;;8.80;3.20;;;;;;;;;;4935590;28;20289;-90
2021/08/14 14:35:50;;;;;;;7.05;2.50;;;;;;;;;;4929328;28;20080;-90
2021/08/14 14:38:26;;;;;;;6.28;2.80;;;;;;;;;;4952425;28;20043;-91
2021/08/14 14:40:54;;;;;;;7.47;2.72;;;;;;;;;;4888939;28;20973;-89
2021/08/14 14:43:30;;;;;;;9.20;3.45;;;;;;;;;;4927769;28;20063;-89
2021/08/14 14:46:06;;;;;;;6.10;2.88;;;;;;;;;;4887971;28;20131;-89
2021/08/14 14:48:33;;;;;;;7.45;2.80;;;;;;;;;;4875060;28;31133;-90
2021/08/14 14:51:13;;;;;;;8.23;3.00;;;;;;;;;;4925040;28;20521;-89
2021/08/14 14:53:41;;;;;;;6.88;2.90;;;;;;;;;;4878232;28;20087;-89
2021/08/14 14:56:07;;;;;;;5.53;2.58;;;;;;;;;;4832257;29;20664;-88
2021/08/14 14:58:48;;;;;;;7.55;3.28;;;;;;;;;;5056340;27;20413;-89
2021/08/14 15:01:15;;;;;;;8.55;2.95;;;;;;;;;;4986633;28;20065;-91
2021/08/14 15:03:41;;;;;;;8.70;2.72;;;;;;;;;;4983047;28;20149;-89
2021/08/14 15:06:13;;;;;;;8.63;3.63;;;;;;;;;;4929608;28;20140;-89
2021/08/14 15:08:53;;;;;;;6.80;3.30;;;;;;;;;;4960091;27;1312647;-89
2021/08/14 15:11:20;;;;;;;9.48;3.30;;;;;;;;;;4932646;28;20137;-89
2021/08/14 15:13:46;;;;;;;7.20;3.47;;;;;;;;;;4923759;28;20061;-90
2021/08/14 15:16:15;;;;;;;10.48;3.78;;;;;;;;;;4926344;28;20493;-90
2021/08/14 15:18:41;;;;;;;6.50;3.28;;;;;;;;;;5048325;28;20060;-89
2021/08/14 15:21:07;;;;;;;10.23;3.83;;;;;;;;;;5075498;28;20060;-89
2021/08/14 15:23:34;;;;;;;5.78;2.50;;;;;;;;;;5077192;28;20053;-88
2021/08/14 15:26:00;;;;;;;9.25;3.40;;;;;;;;;;5047532;28;20052;-89
2021/08/14 15:28:26;;;;;;;10.88;3.67;;;;;;;;;;5057545;28;20044;-90
2021/08/14 15:30:52;;;;;;;9.23;3.58;;;;;;;;;;5058856;28;20053;-89
2021/08/14 15:33:20;;;;;;;7.85;3.20;;;;;;;;;;5034330;28;20102;-89
2021/08/14 15:35:46;;;;;;;7.60;3.30;;;;;;;;;;5043111;28;20139;-89
2021/08/14 15:38:13;;;;;;;6.53;3.10;;;;;;;;;;5026112;28;20048;-89
2021/08/14 15:40:40;;;;;;;8.32;3.67;;;;;;;;;;5036706;28;20070;-93
2021/08/14 15:43:10;;;;;;;8.98;3.60;;;;;;;;;;5054307;28;20105;-90
2021/08/14 15:45:37;;;;;;;8.13;3.65;;;;;;;;;;5054631;28;20053;-89
2021/08/14 15:48:03;;;;;;;9.73;3.53;;;;;;;;;;5067626;28;20046;-89
2021/08/14 15:50:32;;;;;;;9.82;3.90;;;;;;;;;;5074094;28;20044;-89
2021/08/14 15:52:58;;;;;;;9.43;3.63;;;;;;;;;;5066616;28;20049;-89
2021/08/14 15:55:25;;;;;;;10.45;3.60;;;;;;;;;;5060430;28;20408;-93
2021/08/14 15:57:51;;;;;;;10.27;3.50;;;;;;;;;;5041721;28;20071;-90
2021/08/14 16:00:17;;;;;;;9.25;4.00;;;;;;;;;;5045790;28;20084;-90
2021/08/14 16:02:44;;;;;;;8.80;3.80;;;;;;;;;;5063015;28;20468;-88
2021/08/14 16:05:10;;;;;;;10.23;4.13;;;;;;;;;;5063480;28;20048;-88
2021/08/14 16:07:37;;;;;;;9.65;3.90;;;;;;;;;;5063816;28;20057;-92
2021/08/14 16:10:04;;;;;;;9.60;3.80;;;;;;;;;;5046438;28;20048;-86
2021/08/14 16:12:32;;;;;;;7.78;3.30;;;;;;;;;;5025709;28;20163;-88
2021/08/14 16:14:58;;;;;;;10.20;3.90;;;;;;;;;;4967692;28;20062;-88
2021/08/14 16:17:24;;;;;;;8.75;3.20;;;;;;;;;;5062931;28;20089;-88
2021/08/14 16:19:53;;;;;;;9.30;3.83;;;;;;;;;;5054410;28;20119;-89
2021/08/14 16:22:19;;;;;;;7.40;3.75;;;;;;;;;;5018004;28;21478;-88
2021/08/14 16:24:45;;;;;;;10.75;3.75;;;;;;;;;;4977416;28;20061;-88
2021/08/14 16:27:35;;;;;;;8.82;3.40;;;;;;;;;;4910595;29;20499;-88
2021/08/14 16:30:05;;;;;;;8.80;3.92;;;;;;;;;;4991031;28;20564;-88
2021/08/14 16:32:41;;;;;;;8.75;3.65;;;;;;;;;;4981054;28;20054;-88
2021/08/14 16:35:07;;;;;;;8.73;3.28;;;;;;;;;;5015534;28;20084;-88
2021/08/14 16:37:52;;;;;;;8.93;3.10;;;;;;;;;;5027174;28;20107;-88
2021/08/14 16:40:37;;;;;;;8.82;3.35;;;;;;;;;;5023393;28;20091;-88
2021/08/14 16:43:21;;;;;;;8.70;3.60;;;;;;;;;;5034210;28;20102;-88
2021/08/14 16:45:48;;;;;;;7.97;3.33;;;;;;;;;;5043574;28;20049;-89
2021/08/14 16:48:15;;;;;;;10.00;3.72;;;;;;;;;;5042289;28;20049;-89
2021/08/14 16:50:59;;;;;;;;;;;;;;;;;;5038500;28;20055;-89
2021/08/14 16:53:44;;;;;;;9.05;3.58;;;;;;;;;;5030405;28;20200;-88
2021/08/14 16:56:10;;;;;;;8.95;3.75;;;;;;;;;;5042442;28;20053;-88
2021/08/14 16:58:55;;;;;;;12.38;4.10;;;;;;;;;;5037744;28;20089;-89
2021/08/14 17:01:21;;;;;;;10.88;4.20;;;;;;;;;;5051025;28;20090;-89
2021/08/14 17:04:07;;;;;;;10.57;4.20;;;;;;;;;;5038045;28;20050;-88
2021/08/14 17:06:34;;;;;;;10.75;3.60;;;;;;;;;;5056850;28;20056;-88